EDQP weather

Rosenthal-Field Plössen Airport
Speichersdorf, Bavaria, Germany

Public forecast

Using degrees Celsius for public forecast. Weather courtesy of forecast.io.

Closest aviation weather report (METAR) to Rosenthal-Field Plössen Airport

Closest report is Grafenwohr Army Air Field, 11.5 nm (21.3 km) SSE. Retrieved 2020/04/07 05:56 UTC (1 hour ago):

ETIC 070556Z AUTO 00000KT 9999 CLR 00/00 A3039 RMK AO2 SLP301 T00040004 10026 21009 52015

Closest aviation forecast (TAF) to Rosenthal-Field Plössen Airport

Closest forecast is Grafenwohr Army Air Field, 11.5 nm (21.3 km) SSE. Retrieved 2020-04-07 02:08 UTC (5 hours ago):

TAF ETIC 070200Z 0702/0808 VRB06KT 9999 SKC QNH3031INS TX19/0714Z TNM01/0704Z